Time;durP1;ratioP1;P1;durP2;ratioP2;P2;SDS_P1;SDS_P2;PMS_P1;PMS_P2;Temp;Humidity;BMP_temperature;BMP_pressure;BME280_temperature;BME280_humidity;BME280_pressure;Samples;Min_cycle;Max_cycle;Signal;HPM_P1;HPM_P2
2022/10/07 04:31:26;;;;;;;;;10.33;10.33;;;;;;;;5521825;22;46189;-61
2022/10/07 04:33:52;;;;;;;;;8.33;8.00;;;;;;;;5036031;28;45830;-61
2022/10/07 04:36:17;;;;;;;;;12.67;11.67;;;;;;;;5036150;28;45493;-61
2022/10/07 04:38:45;;;;;;;;;15.00;12.67;;;;;;;;5036821;28;46066;-59
2022/10/07 04:41:10;;;;;;;;;13.00;10.67;;;;;;;;5037476;28;45399;-61
2022/10/07 04:43:36;;;;;;;;;12.00;12.00;;;;;;;;5038385;28;45203;-61
2022/10/07 04:46:08;;;;;;;;;11.67;11.67;;;;;;;;5036801;28;45132;-61
2022/10/07 04:48:33;;;;;;;;;16.67;11.00;;;;;;;;5036282;28;45538;-61
2022/10/07 04:51:00;;;;;;;;;15.67;14.00;;;;;;;;5036666;28;46081;-61
2022/10/07 04:53:25;;;;;;;;;15.00;11.00;;;;;;;;5036893;28;45439;-62
2022/10/07 04:55:50;;;;;;;;;10.33;10.33;;;;;;;;5037986;28;45433;-61
2022/10/07 04:58:16;;;;;;;;;16.00;12.67;;;;;;;;5036280;28;46301;-61
2022/10/07 05:00:43;;;;;;;;;14.00;11.33;;;;;;;;5035610;28;45431;-61
2022/10/07 05:03:09;;;;;;;;;10.00;10.00;;;;;;;;5032710;28;45305;-61
2022/10/07 05:05:34;;;;;;;;;12.00;11.67;;;;;;;;5038063;28;45363;-61
2022/10/07 05:07:59;;;;;;;;;13.00;11.33;;;;;;;;5034665;28;45418;-61
2022/10/07 05:10:24;;;;;;;;;12.33;12.00;;;;;;;;5034469;28;45359;-61
2022/10/07 05:12:49;;;;;;;;;11.67;10.33;;;;;;;;5036441;28;45368;-59
2022/10/07 05:15:15;;;;;;;;;12.67;12.00;;;;;;;;5037852;28;45427;-61
2022/10/07 05:17:40;;;;;;;;;14.67;12.67;;;;;;;;5037547;28;46269;-61
2022/10/07 05:20:06;;;;;;;;;13.00;13.00;;;;;;;;5037815;28;45375;-61
2022/10/07 05:22:32;;;;;;;;;19.67;15.67;;;;;;;;5034264;28;45360;-61
2022/10/07 05:24:57;;;;;;;;;16.00;13.67;;;;;;;;5033726;28;45352;-59
2022/10/07 05:27:23;;;;;;;;;13.00;12.00;;;;;;;;5036151;28;46108;-60
2022/10/07 05:29:48;;;;;;;;;18.33;14.00;;;;;;;;5038416;28;45403;-59
2022/10/07 05:32:14;;;;;;;;;13.67;12.00;;;;;;;;5032899;28;45495;-59
2022/10/07 05:34:39;;;;;;;;;14.33;14.00;;;;;;;;5039829;28;46141;-60
2022/10/07 05:37:04;;;;;;;;;16.67;15.00;;;;;;;;5031916;28;46208;-59
2022/10/07 05:39:30;;;;;;;;;15.00;13.00;;;;;;;;5041350;28;45328;-59
2022/10/07 05:41:55;;;;;;;;;13.33;12.00;;;;;;;;5039062;28;45540;-61
2022/10/07 05:44:20;;;;;;;;;17.67;13.67;;;;;;;;5033974;28;45458;-60
2022/10/07 05:46:45;;;;;;;;;16.67;14.67;;;;;;;;5038152;28;45596;-61
2022/10/07 05:49:11;;;;;;;;;20.00;16.67;;;;;;;;5041461;28;45242;-61
2022/10/07 05:51:36;;;;;;;;;19.33;15.33;;;;;;;;5018104;28;45640;-61
2022/10/07 05:54:02;;;;;;;;;20.67;17.67;;;;;;;;5040435;28;45427;-60
2022/10/07 05:56:27;;;;;;;;;16.33;16.00;;;;;;;;5037401;28;47098;-61
2022/10/07 05:58:52;;;;;;;;;21.33;17.33;;;;;;;;5038419;28;45442;-60
2022/10/07 06:01:19;;;;;;;;;19.67;14.67;;;;;;;;5039284;28;45458;-60
2022/10/07 06:03:48;;;;;;;;;22.33;16.33;;;;;;;;5039482;28;45400;-61
2022/10/07 06:06:14;;;;;;;;;21.00;18.00;;;;;;;;5039349;28;45984;-61
2022/10/07 06:08:39;;;;;;;;;24.33;18.00;;;;;;;;5039945;28;45423;-61
2022/10/07 06:13:49;;;;;;;;;14.67;14.67;;;;;;;;5040118;28;45606;-61
2022/10/07 06:16:15;;;;;;;;;20.00;18.00;;;;;;;;5038732;28;46106;-61
2022/10/07 06:18:40;;;;;;;;;19.67;16.00;;;;;;;;5022490;28;45345;-61
2022/10/07 06:21:05;;;;;;;;;20.00;19.00;;;;;;;;5038858;28;45434;-60
2022/10/07 06:23:31;;;;;;;;;17.00;15.67;;;;;;;;5040307;28;45576;-61
2022/10/07 06:25:56;;;;;;;;;20.33;16.67;;;;;;;;5032233;28;46097;-61
2022/10/07 06:28:22;;;;;;;;;20.33;19.00;;;;;;;;5038854;28;45582;-61
2022/10/07 06:33:51;;;;;;;;;18.33;18.00;;;;;;;;5037177;28;45349;-60
2022/10/07 06:36:16;;;;;;;;;17.00;16.33;;;;;;;;5035991;28;46101;-61
2022/10/07 06:38:49;;;;;;;;;17.67;17.33;;;;;;;;5039423;28;45481;-61
2022/10/07 06:41:14;;;;;;;;;23.67;17.00;;;;;;;;5027529;28;45592;-68
2022/10/07 06:43:40;;;;;;;;;15.33;14.33;;;;;;;;5030333;28;45775;-69
2022/10/07 06:46:06;;;;;;;;;30.67;19.67;;;;;;;;5041121;28;45832;-69
2022/10/07 06:48:32;;;;;;;;;22.00;18.00;;;;;;;;5043926;28;45426;-68
2022/10/07 06:50:57;;;;;;;;;20.33;19.33;;;;;;;;5040082;28;45480;-68
2022/10/07 06:53:23;;;;;;;;;23.33;20.33;;;;;;;;5042932;28;45461;-68
2022/10/07 06:55:53;;;;;;;;;22.33;17.33;;;;;;;;5036385;28;47062;-69
2022/10/07 06:58:19;;;;;;;;;25.00;19.67;;;;;;;;5036907;28;45788;-68
2022/10/07 07:00:48;;;;;;;;;25.33;20.00;;;;;;;;5038971;28;45530;-68
2022/10/07 07:03:14;;;;;;;;;18.67;17.00;;;;;;;;5037786;28;45682;-68
2022/10/07 07:05:39;;;;;;;;;19.00;17.00;;;;;;;;5036014;28;45427;-68
2022/10/07 07:08:04;;;;;;;;;20.33;17.67;;;;;;;;5040924;28;45450;-68
2022/10/07 07:10:30;;;;;;;;;25.67;18.33;;;;;;;;5037981;28;46675;-68
2022/10/07 07:12:56;;;;;;;;;20.00;18.00;;;;;;;;5020688;28;45941;-69
2022/10/07 07:15:21;;;;;;;;;26.33;18.33;;;;;;;;5038746;28;47037;-69
2022/10/07 07:17:46;;;;;;;;;21.67;20.33;;;;;;;;5036382;28;45344;-68
2022/10/07 07:20:13;;;;;;;;;24.33;20.00;;;;;;;;5027637;28;45576;-68
2022/10/07 07:22:38;;;;;;;;;23.00;20.00;;;;;;;;5038068;28;45536;-68
2022/10/07 07:25:03;;;;;;;;;26.33;21.33;;;;;;;;5031561;28;47129;-68
2022/10/07 07:27:28;;;;;;;;;23.33;21.67;;;;;;;;5037500;28;45548;-68
2022/10/07 07:29:54;;;;;;;;;24.33;23.00;;;;;;;;5033457;28;45439;-68
2022/10/07 07:32:19;;;;;;;;;24.00;24.00;;;;;;;;5031907;28;45897;-68
2022/10/07 07:34:44;;;;;;;;;22.33;20.33;;;;;;;;5034936;28;45935;-68
2022/10/07 07:37:09;;;;;;;;;26.00;22.67;;;;;;;;5036075;28;45431;-68
2022/10/07 07:39:35;;;;;;;;;22.00;20.00;;;;;;;;5036220;28;47007;-68
2022/10/07 07:42:00;;;;;;;;;31.33;24.67;;;;;;;;5027290;28;45474;-68
2022/10/07 07:44:28;;;;;;;;;30.67;27.00;;;;;;;;5030746;28;46606;-68
2022/10/07 07:46:54;;;;;;;;;27.67;25.00;;;;;;;;5025867;28;45375;-69
2022/10/07 07:49:20;;;;;;;;;29.33;23.00;;;;;;;;5020351;28;45518;-68
2022/10/07 07:51:45;;;;;;;;;27.33;23.00;;;;;;;;5020397;28;45700;-67
2022/10/07 07:54:11;;;;;;;;;28.67;25.00;;;;;;;;5037192;28;45393;-68
2022/10/07 07:56:36;;;;;;;;;25.33;24.67;;;;;;;;5033958;28;45487;-67
2022/10/07 07:59:02;;;;;;;;;26.00;22.67;;;;;;;;5034533;28;45787;-69
2022/10/07 08:01:30;;;;;;;;;32.67;28.00;;;;;;;;5036827;28;45677;-67
2022/10/07 08:03:56;;;;;;;;;24.00;23.33;;;;;;;;5032498;28;46747;-68
2022/10/07 08:06:21;;;;;;;;;32.33;26.33;;;;;;;;5037363;28;45359;-67
2022/10/07 08:08:47;;;;;;;;;29.33;27.33;;;;;;;;5036334;28;45229;-68
2022/10/07 08:11:13;;;;;;;;;32.67;28.33;;;;;;;;5035374;28;45148;-68
2022/10/07 08:13:40;;;;;;;;;34.33;30.00;;;;;;;;5035549;28;46052;-67
2022/10/07 08:16:06;;;;;;;;;34.00;29.33;;;;;;;;5036844;28;45515;-67
2022/10/07 08:18:31;;;;;;;;;32.33;28.33;;;;;;;;5032392;28;46097;-67
2022/10/07 08:20:57;;;;;;;;;31.00;29.67;;;;;;;;5036332;28;45757;-67
2022/10/07 08:23:22;;;;;;;;;31.67;28.67;;;;;;;;5034731;28;45542;-67
2022/10/07 08:25:52;;;;;;;;;33.00;29.33;;;;;;;;5033524;28;46798;-66
2022/10/07 08:28:17;;;;;;;;;31.67;29.00;;;;;;;;5032078;28;45537;-67
2022/10/07 08:30:45;;;;;;;;;33.67;29.00;;;;;;;;5032490;28;45964;-67
2022/10/07 08:33:10;;;;;;;;;34.67;30.00;;;;;;;;5037401;28;46964;-67
2022/10/07 08:35:35;;;;;;;;;32.00;31.00;;;;;;;;5034094;28;45568;-67
2022/10/07 08:38:00;;;;;;;;;38.67;31.67;;;;;;;;5035395;28;45360;-67
2022/10/07 08:40:26;;;;;;;;;34.33;30.00;;;;;;;;5035892;28;45852;-67
2022/10/07 08:42:52;;;;;;;;;34.67;31.67;;;;;;;;5028292;28;45973;-68
2022/10/07 08:45:22;;;;;;;;;30.00;28.67;;;;;;;;5037306;28;45385;-68
2022/10/07 08:47:50;;;;;;;;;36.67;29.00;;;;;;;;5037346;28;45418;-67
2022/10/07 08:50:22;;;;;;;;;33.33;29.67;;;;;;;;5017112;28;45576;-68
2022/10/07 08:53:02;;;;;;;;;39.00;31.33;;;;;;;;5035085;28;46235;-68
2022/10/07 08:55:47;;;;;;;;;36.67;30.33;;;;;;;;5035277;28;45336;-68
2022/10/07 08:58:29;;;;;;;;;38.33;32.67;;;;;;;;5036278;28;45501;-68
2022/10/07 09:01:21;;;;;;;;;31.00;29.00;;;;;;;;5034276;28;45333;-68
2022/10/07 09:03:51;;;;;;;;;37.00;29.00;;;;;;;;5040077;28;46164;-67
2022/10/07 09:06:38;;;;;;;;;36.67;30.00;;;;;;;;5040263;28;45324;-67
2022/10/07 09:09:11;;;;;;;;;34.33;31.33;;;;;;;;5030043;28;45487;-67
2022/10/07 09:11:38;;;;;;;;;33.33;29.67;;;;;;;;5039572;28;45840;-69
2022/10/07 09:14:13;;;;;;;;;31.00;25.33;;;;;;;;5038326;28;45534;-67
2022/10/07 09:16:42;;;;;;;;;34.33;30.33;;;;;;;;5039852;28;45411;-67
2022/10/07 09:19:10;;;;;;;;;26.67;24.67;;;;;;;;5039247;28;45339;-67
2022/10/07 09:21:42;;;;;;;;;30.67;27.33;;;;;;;;5038563;28;45260;-67
2022/10/07 09:24:27;;;;;;;;;25.67;21.67;;;;;;;;5040241;28;47059;-67
2022/10/07 09:26:57;;;;;;;;;27.33;22.33;;;;;;;;5039377;28;45415;-68
2022/10/07 09:29:23;;;;;;;;;27.00;23.00;;;;;;;;5032879;28;45305;-68
2022/10/07 09:31:49;;;;;;;;;25.00;17.33;;;;;;;;5035601;28;45396;-68
2022/10/07 09:34:22;;;;;;;;;12.00;10.67;;;;;;;;5036373;28;45462;-68
2022/10/07 09:37:22;;;;;;;;;9.00;8.00;;;;;;;;5040414;28;45901;-67
2022/10/07 09:39:49;;;;;;;;;8.25;6.00;;;;;;;;4955028;28;45776;-66
2022/10/07 09:42:35;;;;;;;;;6.00;5.00;;;;;;;;5029740;28;45490;-66
2022/10/07 09:45:02;;;;;;;;;3.50;3.50;;;;;;;;5040767;28;46160;-68
2022/10/07 09:47:31;;;;;;;;;7.25;5.25;;;;;;;;5041434;28;45589;-66
2022/10/07 09:49:58;;;;;;;;;7.00;6.25;;;;;;;;5035764;28;45432;-65
2022/10/07 09:52:24;;;;;;;;;7.25;7.25;;;;;;;;5036024;28;45455;-66
2022/10/07 09:54:51;;;;;;;;;9.75;7.50;;;;;;;;5033199;28;46144;-67
2022/10/07 09:57:27;;;;;;;;;6.75;6.25;;;;;;;;5033466;28;45407;-66
2022/10/07 10:00:11;;;;;;;;;7.50;7.25;;;;;;;;5035323;28;45487;-66
2022/10/07 10:02:37;;;;;;;;;7.25;4.25;;;;;;;;5034162;28;45313;-66
2022/10/07 10:05:03;;;;;;;;;5.25;3.75;;;;;;;;5034221;28;45477;-66
2022/10/07 10:07:37;;;;;;;;;7.75;6.50;;;;;;;;5033850;28;45342;-67
2022/10/07 10:10:23;;;;;;;;;10.25;9.25;;;;;;;;5039383;28;45356;-67
2022/10/07 10:12:50;;;;;;;;;6.75;5.00;;;;;;;;5038843;28;45277;-66
2022/10/07 10:15:26;;;;;;;;;7.00;5.75;;;;;;;;5035478;28;46314;-67
2022/10/07 10:17:51;;;;;;;;;14.25;6.75;;;;;;;;5033806;28;45466;-67
2022/10/07 10:20:17;;;;;;;;;2.75;2.75;;;;;;;;5041624;28;45345;-66
2022/10/07 10:22:42;;;;;;;;;3.25;2.25;;;;;;;;5035340;28;47903;-66
2022/10/07 10:28:00;;;;;;;;;7.00;3.00;;;;;;;;5036309;28;45482;-66
2022/10/07 10:30:26;;;;;;;;;4.25;3.00;;;;;;;;5038229;28;45373;-66
2022/10/07 10:32:59;;;;;;;;;5.75;4.50;;;;;;;;5011138;28;45295;-66
2022/10/07 10:35:29;;;;;;;;;6.25;6.25;;;;;;;;5039060;28;47297;-67
2022/10/07 10:38:10;;;;;;;;;4.00;4.00;;;;;;;;5034226;28;45360;-66
2022/10/07 10:40:38;;;;;;;;;3.50;2.25;;;;;;;;5033297;28;45357;-66
2022/10/07 10:43:15;;;;;;;;;7.00;4.75;;;;;;;;5032466;28;47005;-66
2022/10/07 10:45:40;;;;;;;;;4.50;3.50;;;;;;;;5039952;28;46324;-66
2022/10/07 10:48:06;;;;;;;;;4.75;4.50;;;;;;;;5039395;28;45491;-66
2022/10/07 10:50:51;;;;;;;;;4.25;3.75;;;;;;;;5039499;28;45326;-66
2022/10/07 10:53:33;;;;;;;;;2.50;2.50;;;;;;;;5038257;28;45633;-66
2022/10/07 10:56:01;;;;;;;;;3.25;1.75;;;;;;;;5043704;28;45567;-66
2022/10/07 10:58:26;;;;;;;;;2.75;2.75;;;;;;;;5036381;28;45587;-66
2022/10/07 11:01:07;;;;;;;;;4.50;2.25;;;;;;;;5039431;28;45381;-66
2022/10/07 11:03:33;;;;;;;;;3.25;2.00;;;;;;;;5035469;28;45248;-66
2022/10/07 11:06:00;;;;;;;;;3.00;3.00;;;;;;;;5038524;28;45381;-66
2022/10/07 11:08:32;;;;;;;;;1.80;0.60;;;;;;;;5039430;28;45677;-65
2022/10/07 11:11:01;;;;;;;;;4.75;3.00;;;;;;;;5039682;28;45300;-66
2022/10/07 11:13:29;;;;;;;;;6.00;6.00;;;;;;;;5034164;28;45327;-66
2022/10/07 11:16:03;;;;;;;;;3.00;2.00;;;;;;;;5038751;28;46175;-66
2022/10/07 11:18:34;;;;;;;;;4.00;3.00;;;;;;;;5030560;28;45687;-56
2022/10/07 11:21:00;;;;;;;;;1.50;0.75;;;;;;;;5036916;28;45383;-55
2022/10/07 11:23:40;;;;;;;;;6.50;2.00;;;;;;;;5036276;28;45564;-55
2022/10/07 11:26:09;;;;;;;;;4.75;4.00;;;;;;;;5038800;28;45486;-56
2022/10/07 11:28:35;;;;;;;;;1.00;1.00;;;;;;;;5043233;28;45312;-55
2022/10/07 11:31:07;;;;;;;;;2.00;2.00;;;;;;;;5037273;28;45634;-56
2022/10/07 11:33:45;;;;;;;;;1.00;1.00;;;;;;;;5040368;28;45656;-56
2022/10/07 11:36:16;;;;;;;;;3.50;3.25;;;;;;;;5040779;28;45498;-54
2022/10/07 11:38:42;;;;;;;;;5.00;1.75;;;;;;;;5040276;28;45341;-58
2022/10/07 11:41:13;;;;;;;;;4.67;4.67;;;;;;;;5034697;28;45344;-57
2022/10/07 11:43:46;;;;;;;;;7.00;3.00;;;;;;;;5038365;28;45333;-56
2022/10/07 11:46:23;;;;;;;;;4.00;2.00;;;;;;;;5038175;28;46137;-57
2022/10/07 11:48:55;;;;;;;;;1.25;0.00;;;;;;;;5038247;28;45497;-57
2022/10/07 11:51:23;;;;;;;;;2.50;1.00;;;;;;;;5039431;28;45482;-56
2022/10/07 11:53:51;;;;;;;;;2.50;2.50;;;;;;;;5041233;28;45593;-56
2022/10/07 11:56:26;;;;;;;;;4.50;3.75;;;;;;;;5036516;28;46368;-56
2022/10/07 11:59:14;;;;;;;;;5.75;3.00;;;;;;;;5034863;28;45931;-58
2022/10/07 12:01:45;;;;;;;;;3.00;2.75;;;;;;;;5031397;28;45473;-58
2022/10/07 12:04:16;;;;;;;;;2.00;1.00;;;;;;;;5029800;28;45347;-58
2022/10/07 12:07:02;;;;;;;;;4.33;3.00;;;;;;;;5032218;28;45563;-58
2022/10/07 12:09:46;;;;;;;;;5.00;2.50;;;;;;;;5039110;28;45475;-58
2022/10/07 12:12:12;;;;;;;;;4.00;4.00;;;;;;;;5035226;28;45324;-57
2022/10/07 12:14:42;;;;;;;;;3.75;2.50;;;;;;;;5042049;28;45570;-58
2022/10/07 12:17:18;;;;;;;;;3.00;3.00;;;;;;;;5040263;28;46212;-58
2022/10/07 12:19:43;;;;;;;;;3.33;3.00;;;;;;;;5033412;28;45605;-58
2022/10/07 12:22:08;;;;;;;;;4.75;2.50;;;;;;;;5038276;28;45426;-58
2022/10/07 12:24:35;;;;;;;;;1.00;1.00;;;;;;;;5021170;28;45537;-58
2022/10/07 12:27:12;;;;;;;;;4.00;2.00;;;;;;;;5040557;28;46055;-59
2022/10/07 12:29:49;;;;;;;;;3.25;2.50;;;;;;;;5041083;28;45339;-56
2022/10/07 12:32:33;;;;;;;;;5.25;2.00;;;;;;;;5040437;28;45636;-58
2022/10/07 12:35:19;;;;;;;;;3.00;2.00;;;;;;;;5041838;28;45352;-58
2022/10/07 12:37:45;;;;;;;;;1.00;1.00;;;;;;;;5039605;28;45646;-58
2022/10/07 12:40:20;;;;;;;;;1.00;1.00;;;;;;;;5040399;28;45442;-58
2022/10/07 12:43:09;;;;;;;;;3.25;2.00;;;;;;;;5041016;28;45454;-58
2022/10/07 12:45:37;;;;;;;;;2.00;2.00;;;;;;;;4999001;28;45270;-58
2022/10/07 12:48:03;;;;;;;;;2.50;2.00;;;;;;;;5030509;28;46240;-57
2022/10/07 12:50:30;;;;;;;;;2.00;2.00;;;;;;;;5031760;28;45397;-58
2022/10/07 12:52:57;;;;;;;;;1.50;1.25;;;;;;;;5037716;28;45372;-58
2022/10/07 12:55:28;;;;;;;;;3.75;3.75;;;;;;;;5024523;28;45384;-58
2022/10/07 12:59:45;;;;;;;;;2.00;2.00;;;;;;;;5036503;28;46305;-59
2022/10/07 13:00:45;;;;;;;;;3.00;3.00;;;;;;;;5034344;28;45442;-57
2022/10/07 13:03:10;;;;;;;;;1.50;1.50;;;;;;;;5036551;28;45399;-58
2022/10/07 13:05:48;;;;;;;;;1.25;1.00;;;;;;;;5043579;28;45661;-57
2022/10/07 13:08:22;;;;;;;;;2.00;2.00;;;;;;;;5039631;28;45497;-58
2022/10/07 13:10:56;;;;;;;;;4.50;1.50;;;;;;;;5028357;28;45917;-58
2022/10/07 13:13:39;;;;;;;;;3.50;3.50;;;;;;;;5047581;28;45376;-58
2022/10/07 13:16:11;;;;;;;;;2.75;2.75;;;;;;;;5035813;28;45411;-58
2022/10/07 13:18:37;;;;;;;;;3.00;2.00;;;;;;;;5035114;28;46967;-57
2022/10/07 13:21:20;;;;;;;;;3.25;2.00;;;;;;;;5042500;28;45666;-58
2022/10/07 13:23:53;;;;;;;;;3.00;3.00;;;;;;;;5033383;28;45438;-57
2022/10/07 13:26:20;;;;;;;;;1.75;1.75;;;;;;;;5040945;28;45594;-57
2022/10/07 13:28:47;;;;;;;;;2.25;1.75;;;;;;;;5028332;28;47214;-57
2022/10/07 13:31:23;;;;;;;;;3.00;2.75;;;;;;;;5033137;28;45626;-57
2022/10/07 13:33:50;;;;;;;;;2.00;2.00;;;;;;;;5037051;28;45511;-57
2022/10/07 13:36:22;;;;;;;;;5.00;1.00;;;;;;;;5039493;28;45606;-57
2022/10/07 13:38:50;;;;;;;;;1.75;1.00;;;;;;;;5030630;28;46372;-57
2022/10/07 13:41:23;;;;;;;;;2.00;2.00;;;;;;;;5033962;28;45364;-57
2022/10/07 13:43:52;;;;;;;;;1.00;1.00;;;;;;;;5043257;28;45590;-57
2022/10/07 13:46:18;;;;;;;;;1.25;1.25;;;;;;;;5039465;28;45480;-57
2022/10/07 13:48:44;;;;;;;;;2.25;2.00;;;;;;;;5026894;28;46089;-57
2022/10/07 13:51:13;;;;;;;;;2.75;2.00;;;;;;;;5042755;28;45481;-57
2022/10/07 13:53:40;;;;;;;;;1.75;1.00;;;;;;;;5043881;28;45332;-57
2022/10/07 13:56:14;;;;;;;;;2.67;1.33;;;;;;;;5034995;28;45876;-57
2022/10/07 13:58:39;;;;;;;;;2.00;2.00;;;;;;;;5047157;28;45473;-57
2022/10/07 14:01:05;;;;;;;;;3.00;1.00;;;;;;;;5040422;28;45424;-57
2022/10/07 14:03:30;;;;;;;;;3.00;1.00;;;;;;;;5045849;28;45425;-57
2022/10/07 14:05:55;;;;;;;;;3.75;3.50;;;;;;;;5044785;28;45407;-57
2022/10/07 14:08:22;;;;;;;;;3.50;1.00;;;;;;;;5036320;28;46381;-57
2022/10/07 14:10:55;;;;;;;;;2.00;2.00;;;;;;;;5027279;28;45433;-57
2022/10/07 14:13:20;;;;;;;;;0.50;0.50;;;;;;;;5036480;28;45404;-57
2022/10/07 14:15:48;;;;;;;;;1.00;1.00;;;;;;;;5019481;28;45769;-57
2022/10/07 14:18:15;;;;;;;;;1.50;1.00;;;;;;;;5041773;28;46150;-58
2022/10/07 14:20:46;;;;;;;;;1.50;1.00;;;;;;;;5034684;28;45556;-58
2022/10/07 14:23:15;;;;;;;;;2.50;1.00;;;;;;;;5017768;28;45610;-57
2022/10/07 14:25:46;;;;;;;;;0.00;0.00;;;;;;;;5038248;28;45301;-57
2022/10/07 14:28:15;;;;;;;;;2.00;1.00;;;;;;;;5041026;28;45494;-58
2022/10/07 14:36:29;;;;;;;;;47.00;40.33;;;;;;;;4983255;28;45774;-57
2022/10/07 14:39:00;;;;;;;;;40.67;34.67;;;;;;;;4977936;28;46291;-57
2022/10/07 14:41:30;;;;;;;;;37.33;34.00;;;;;;;;5009205;28;45445;-57
2022/10/07 14:43:58;;;;;;;;;19.67;19.00;;;;;;;;5044616;28;45291;-57
2022/10/07 14:46:24;;;;;;;;;15.33;12.00;;;;;;;;5051958;28;45315;-59
2022/10/07 14:48:51;;;;;;;;;3.00;2.00;;;;;;;;5053020;28;46156;-58
2022/10/07 14:51:26;;;;;;;;;1.75;1.75;;;;;;;;5031014;28;45264;-58
2022/10/07 14:53:54;;;;;;;;;5.67;2.00;;;;;;;;5040365;28;45394;-58
2022/10/07 14:56:26;;;;;;;;;12.67;12.67;;;;;;;;5027474;28;45370;-58
2022/10/07 14:58:52;;;;;;;;;13.00;12.67;;;;;;;;5042587;28;45501;-58
2022/10/07 15:01:18;;;;;;;;;2.00;1.50;;;;;;;;5047710;28;45345;-58
2022/10/07 15:03:45;;;;;;;;;5.00;3.33;;;;;;;;5040712;28;47026;-58
2022/10/07 15:06:11;;;;;;;;;8.33;5.33;;;;;;;;5046386;28;45282;-58
2022/10/07 15:08:36;;;;;;;;;18.00;18.00;;;;;;;;5040415;28;45447;-57
2022/10/07 15:11:03;;;;;;;;;10.33;9.00;;;;;;;;5046296;28;45551;-58
2022/10/07 15:13:29;;;;;;;;;2.75;2.75;;;;;;;;5042146;28;45468;-58
2022/10/07 15:15:54;;;;;;;;;1.00;1.00;;;;;;;;5048396;28;45458;-58
2022/10/07 15:18:20;;;;;;;;;12.00;8.67;;;;;;;;5058579;28;46177;-58
2022/10/07 15:20:52;;;;;;;;;14.67;13.67;;;;;;;;5041501;28;45333;-58
2022/10/07 15:23:18;;;;;;;;;5.67;5.67;;;;;;;;5040499;28;45592;-58
2022/10/07 15:25:43;;;;;;;;;7.67;4.33;;;;;;;;5031198;28;45232;-58
2022/10/07 15:28:08;;;;;;;;;2.00;1.00;;;;;;;;5034377;28;46913;-58
2022/10/07 15:30:33;;;;;;;;;5.50;3.00;;;;;;;;5033689;28;45450;-56
2022/10/07 15:32:59;;;;;;;;;3.00;3.00;;;;;;;;5030007;28;45566;-55
2022/10/07 15:35:26;;;;;;;;;4.00;4.00;;;;;;;;5035732;28;45582;-59
2022/10/07 15:37:52;;;;;;;;;6.33;5.33;;;;;;;;5028159;28;45517;-59
2022/10/07 15:40:17;;;;;;;;;4.33;4.33;;;;;;;;5017104;28;45602;-67
2022/10/07 15:42:43;;;;;;;;;1.25;1.25;;;;;;;;5038200;28;45380;-67
2022/10/07 15:45:10;;;;;;;;;0.50;0.25;;;;;;;;5039184;28;45304;-67
2022/10/07 15:47:35;;;;;;;;;2.00;1.75;;;;;;;;5025901;28;45534;-67
2022/10/07 15:50:00;;;;;;;;;2.50;1.75;;;;;;;;5028368;28;45418;-68
2022/10/07 15:52:26;;;;;;;;;2.00;2.00;;;;;;;;5032921;28;46129;-68
2022/10/07 15:54:52;;;;;;;;;2.50;1.00;;;;;;;;5037855;28;45653;-68
2022/10/07 15:57:17;;;;;;;;;3.00;1.00;;;;;;;;5038360;28;45400;-66
2022/10/07 15:59:42;;;;;;;;;1.50;1.50;;;;;;;;5038654;28;45221;-68
2022/10/07 16:02:12;;;;;;;;;3.75;1.00;;;;;;;;5032172;28;45552;-67
2022/10/07 16:04:41;;;;;;;;;0.00;0.00;;;;;;;;5038641;28;45551;-66
2022/10/07 16:07:10;;;;;;;;;3.00;1.75;;;;;;;;5017605;28;48273;-67
2022/10/07 16:09:35;;;;;;;;;1.00;1.00;;;;;;;;5030779;28;45476;-67
2022/10/07 16:12:00;;;;;;;;;1.00;1.00;;;;;;;;5038476;28;45317;-66
2022/10/07 16:14:25;;;;;;;;;2.00;0.00;;;;;;;;5037797;28;45534;-67
2022/10/07 16:16:50;;;;;;;;;2.00;1.00;;;;;;;;5037222;28;45375;-67
2022/10/07 16:19:15;;;;;;;;;0.00;0.00;;;;;;;;5037254;28;45429;-67
2022/10/07 16:21:41;;;;;;;;;2.00;1.00;;;;;;;;5036316;28;45692;-67
2022/10/07 16:24:06;;;;;;;;;0.75;0.75;;;;;;;;5031070;28;45512;-67
2022/10/07 16:26:34;;;;;;;;;1.50;1.50;;;;;;;;5035515;28;45326;-67
2022/10/07 16:31:45;;;;;;;;;2.00;1.00;;;;;;;;5033290;28;45378;-67
2022/10/07 16:34:11;;;;;;;;;2.00;1.00;;;;;;;;5036551;28;45361;-67
2022/10/07 16:36:36;;;;;;;;;1.25;0.50;;;;;;;;5038188;28;46166;-66
2022/10/07 16:39:03;;;;;;;;;1.00;1.00;;;;;;;;5037086;28;45295;-66
2022/10/07 16:41:29;;;;;;;;;1.25;1.00;;;;;;;;5039997;28;45396;-66
2022/10/07 16:43:58;;;;;;;;;0.75;0.75;;;;;;;;5036990;28;45605;-67
2022/10/07 16:46:23;;;;;;;;;2.00;2.00;;;;;;;;5037268;28;46258;-67
2022/10/07 16:48:49;;;;;;;;;1.67;1.00;;;;;;;;5037822;28;45405;-67
2022/10/07 16:51:17;;;;;;;;;0.00;0.00;;;;;;;;5037109;28;45423;-67
2022/10/07 16:53:44;;;;;;;;;1.33;1.33;;;;;;;;5030098;28;45524;-67
2022/10/07 16:56:10;;;;;;;;;1.00;1.00;;;;;;;;5033052;28;47081;-67
2022/10/07 16:58:39;;;;;;;;;5.00;1.00;;;;;;;;5036908;28;45366;-67
2022/10/07 17:01:08;;;;;;;;;1.00;1.00;;;;;;;;5034345;28;45454;-67
2022/10/07 17:03:33;;;;;;;;;2.00;2.00;;;;;;;;5034924;28;45450;-68
2022/10/07 17:05:58;;;;;;;;;1.33;1.00;;;;;;;;5030550;28;46101;-67
2022/10/07 17:08:24;;;;;;;;;2.00;1.00;;;;;;;;5029952;28;45264;-67
2022/10/07 17:10:49;;;;;;;;;3.33;1.33;;;;;;;;5030739;28;45297;-69
2022/10/07 17:13:17;;;;;;;;;2.00;2.00;;;;;;;;5038073;28;45481;-67
2022/10/07 17:15:43;;;;;;;;;2.00;2.00;;;;;;;;5031850;28;47023;-67
2022/10/07 17:18:08;;;;;;;;;1.00;1.00;;;;;;;;5031376;28;45677;-67
2022/10/07 17:20:33;;;;;;;;;2.00;2.00;;;;;;;;5029854;28;45284;-67
2022/10/07 17:22:58;;;;;;;;;1.67;1.67;;;;;;;;5045660;28;45374;-67
2022/10/07 17:25:23;;;;;;;;;4.00;1.33;;;;;;;;5042142;28;45526;-67
2022/10/07 17:27:50;;;;;;;;;3.00;3.00;;;;;;;;5030222;28;45446;-67
2022/10/07 17:30:16;;;;;;;;;1.00;1.00;;;;;;;;5041870;28;45285;-65
2022/10/07 17:32:41;;;;;;;;;3.00;3.00;;;;;;;;5041376;28;45622;-67
2022/10/07 17:35:07;;;;;;;;;3.00;3.00;;;;;;;;5022911;28;45978;-67
2022/10/07 17:37:33;;;;;;;;;3.33;3.00;;;;;;;;5026157;28;45222;-66
2022/10/07 17:39:58;;;;;;;;;4.00;3.00;;;;;;;;5041204;28;45765;-66
2022/10/07 17:42:23;;;;;;;;;3.00;2.67;;;;;;;;5031480;28;45289;-67
2022/10/07 17:44:48;;;;;;;;;5.00;4.00;;;;;;;;5024792;28;45404;-67
2022/10/07 17:47:14;;;;;;;;;5.00;2.33;;;;;;;;5028154;28;45438;-67
2022/10/07 17:49:39;;;;;;;;;4.33;2.00;;;;;;;;5034098;28;45542;-66
2022/10/07 17:52:05;;;;;;;;;6.67;4.67;;;;;;;;5021545;28;45208;-67
2022/10/07 17:54:30;;;;;;;;;4.67;4.33;;;;;;;;5039425;28;45273;-68
2022/10/07 17:56:55;;;;;;;;;18.00;17.00;;;;;;;;5034419;28;45269;-66
2022/10/07 17:59:20;;;;;;;;;31.67;24.67;;;;;;;;5044920;28;45206;-69
2022/10/07 18:01:47;;;;;;;;;87.50;78.00;;;;;;;;5041854;28;45252;-67
2022/10/07 18:04:17;;;;;;;;;57.33;45.00;;;;;;;;5026661;28;47203;-68
2022/10/07 18:06:42;;;;;;;;;58.25;45.75;;;;;;;;5047089;28;45572;-67
2022/10/07 18:09:08;;;;;;;;;56.33;44.67;;;;;;;;5048681;28;45486;-69
2022/10/07 18:17:02;;;;;;;;;16.00;15.33;;;;;;;;5043657;28;45564;-67
2022/10/07 18:19:28;;;;;;;;;23.67;17.33;;;;;;;;5061346;28;45154;-66
2022/10/07 18:21:55;;;;;;;;;15.33;15.33;;;;;;;;5060094;28;45312;-65
2022/10/07 18:24:20;;;;;;;;;17.33;17.33;;;;;;;;5053623;28;46053;-66
2022/10/07 18:26:45;;;;;;;;;20.00;16.00;;;;;;;;5039634;28;45277;-66
2022/10/07 18:29:10;;;;;;;;;22.00;17.00;;;;;;;;5042974;28;45418;-67
2022/10/07 18:31:36;;;;;;;;;19.33;17.33;;;;;;;;5030304;28;45466;-65
2022/10/07 18:34:01;;;;;;;;;20.67;17.67;;;;;;;;5037933;28;47318;-66
2022/10/07 18:36:26;;;;;;;;;14.00;12.33;;;;;;;;5036634;28;45293;-65
2022/10/07 18:38:52;;;;;;;;;12.67;12.67;;;;;;;;5037143;28;45372;-66
2022/10/07 18:41:17;;;;;;;;;13.00;12.33;;;;;;;;5040406;28;45440;-66
2022/10/07 18:43:44;;;;;;;;;17.67;12.67;;;;;;;;5060544;28;45631;-66
2022/10/07 18:46:10;;;;;;;;;15.00;13.67;;;;;;;;5060125;28;45420;-66
2022/10/07 18:48:37;;;;;;;;;17.33;12.33;;;;;;;;5060806;28;45613;-66
2022/10/07 18:51:03;;;;;;;;;17.00;15.00;;;;;;;;5042479;28;45291;-66
2022/10/07 18:53:33;;;;;;;;;13.33;11.67;;;;;;;;5031808;28;47069;-66
2022/10/07 18:56:03;;;;;;;;;12.67;11.00;;;;;;;;5030969;28;45455;-66
2022/10/07 18:58:31;;;;;;;;;9.00;5.67;;;;;;;;5032868;28;45709;-66
2022/10/07 19:00:57;;;;;;;;;11.67;10.33;;;;;;;;5046170;28;45344;-66
2022/10/07 19:03:22;;;;;;;;;15.00;12.00;;;;;;;;5038121;28;45757;-66
2022/10/07 19:05:47;;;;;;;;;9.67;9.33;;;;;;;;5044781;28;45302;-66
2022/10/07 19:08:12;;;;;;;;;12.33;12.33;;;;;;;;5053886;28;45693;-66
2022/10/07 19:10:40;;;;;;;;;14.67;12.00;;;;;;;;5046427;28;45236;-66
2022/10/07 19:15:50;;;;;;;;;12.33;9.67;;;;;;;;5023089;28;45605;-66
2022/10/07 19:18:15;;;;;;;;;16.67;12.00;;;;;;;;5035819;28;48706;-67
2022/10/07 19:20:41;;;;;;;;;11.67;11.33;;;;;;;;5038768;28;45383;-65
2022/10/07 19:23:08;;;;;;;;;12.00;10.67;;;;;;;;5033867;28;46139;-65
2022/10/07 19:25:45;;;;;;;;;12.67;11.00;;;;;;;;5037724;28;45260;-66
2022/10/07 19:28:10;;;;;;;;;11.00;10.00;;;;;;;;5038981;28;45593;-65
2022/10/07 19:30:36;;;;;;;;;14.33;12.33;;;;;;;;5040474;28;45499;-65
2022/10/07 19:33:01;;;;;;;;;13.33;10.67;;;;;;;;5033265;28;45419;-65